createdAt,value
2022-10-18T00:02:03.218Z,96918.80
2022-10-18T00:04:33.835Z,96919.95
2022-10-18T00:07:02.623Z,96921.27
2022-10-18T00:09:33.490Z,96910.84
2022-10-18T00:12:03.366Z,96912.33
2022-10-18T00:14:32.094Z,96904.34
2022-10-18T00:17:00.780Z,96901.94
2022-10-18T00:19:29.608Z,96900.13
2022-10-18T00:21:58.285Z,96892.69
2022-10-18T00:24:26.952Z,96893.08
2022-10-18T00:26:55.550Z,96887.78
2022-10-18T00:29:53.970Z,96885.48
2022-10-18T00:32:23.024Z,96812.55
2022-10-18T00:34:51.749Z,96881.18
2022-10-18T00:37:20.855Z,96880.64
2022-10-18T00:39:49.619Z,96875.23
2022-10-18T00:42:20.396Z,96873.12
2022-10-18T00:44:52.071Z,96876.55
2022-10-18T00:47:30.516Z,96870.48
2022-10-18T00:49:58.991Z,96876.72
2022-10-18T00:52:39.256Z,96867.82
2022-10-18T00:55:09.717Z,96864.09
2022-10-18T00:57:40.493Z,96864.41
2022-10-18T01:00:10.129Z,96865.96
2022-10-18T01:02:39.913Z,96863.83
2022-10-18T01:05:09.541Z,96859.20
2022-10-18T01:07:52.382Z,96858.37
2022-10-18T01:10:40.485Z,96861.11
2022-10-18T01:13:25.813Z,96860.52
2022-10-18T01:16:25.519Z,96849.83
2022-10-18T01:18:59.671Z,96849.78
2022-10-18T01:21:36.911Z,96843.00
2022-10-18T01:24:28.132Z,96849.36
2022-10-18T01:27:20.601Z,96849.58
2022-10-18T01:30:04.111Z,96845.56
2022-10-18T01:32:35.690Z,96849.09
2022-10-18T01:35:07.321Z,96845.15
2022-10-18T01:37:37.606Z,96843.39
2022-10-18T01:40:08.834Z,96841.01
2022-10-18T01:42:37.445Z,96845.63
2022-10-18T01:45:08.149Z,96841.01
2022-10-18T01:47:37.219Z,96837.05
2022-10-18T01:50:07.765Z,96839.09
2022-10-18T01:52:36.435Z,96833.52
2022-10-18T01:55:05.554Z,96835.61
2022-10-18T01:58:07.148Z,96834.59
2022-10-18T02:00:42.161Z,96832.91
2022-10-18T02:03:25.545Z,96834.39
2022-10-18T02:06:12.397Z,96832.23
2022-10-18T02:08:49.936Z,96828.09
2022-10-18T02:11:19.489Z,96827.25
2022-10-18T02:13:51.024Z,96819.87
2022-10-18T02:16:22.681Z,96820.77
2022-10-18T02:18:59.937Z,96822.51
2022-10-18T02:21:30.659Z,96821.74
2022-10-18T02:24:02.309Z,96820.66
2022-10-18T02:26:31.551Z,96816.27
2022-10-18T02:29:00.562Z,96824.72
2022-10-18T02:31:42.115Z,96811.88
2022-10-18T02:34:13.669Z,96809.77
2022-10-18T02:36:45.240Z,96812.23
2022-10-18T02:39:16.791Z,96819.72
2022-10-18T02:41:45.546Z,96820.02
2022-10-18T02:44:16.904Z,96817.81
2022-10-18T02:46:46.665Z,96822.18
2022-10-18T02:49:15.315Z,96823.80
2022-10-18T02:51:43.985Z,96819.45
2022-10-18T02:54:12.646Z,96827.45
2022-10-18T02:56:41.382Z,96826.92
2022-10-18T02:59:10.093Z,96831.91
2022-10-18T03:01:38.788Z,96830.88
2022-10-18T03:04:07.554Z,96829.95
2022-10-18T03:06:36.469Z,96823.05
2022-10-18T03:09:06.901Z,96824.56
2022-10-18T03:11:35.543Z,96820.22
2022-10-18T03:14:04.208Z,96810.55
2022-10-18T03:16:34.031Z,96828.33
2022-10-18T03:19:02.643Z,96826.23
2022-10-18T03:21:31.234Z,96822.61
2022-10-18T03:23:59.931Z,96823.11
2022-10-18T03:26:28.557Z,96818.12
2022-10-18T03:28:57.367Z,96821.75
2022-10-18T03:31:26.021Z,96819.44
2022-10-18T03:33:54.634Z,96819.88
2022-10-18T03:36:23.200Z,96820.27
2022-10-18T03:38:51.885Z,96819.45
2022-10-18T03:41:20.987Z,96816.22
2022-10-18T03:43:51.084Z,96821.45
2022-10-18T03:46:20.885Z,96822.28
2022-10-18T03:48:49.449Z,96825.41
2022-10-18T03:51:18.000Z,96834.15
2022-10-18T03:53:46.595Z,96829.95
2022-10-18T03:56:17.241Z,96830.58
2022-10-18T03:58:45.739Z,96837.61
2022-10-18T04:01:14.425Z,96834.78
2022-10-18T04:03:43.077Z,96838.28
2022-10-18T04:06:11.713Z,96831.12
2022-10-18T04:08:40.398Z,96833.63
2022-10-18T04:11:10.971Z,96831.64
2022-10-18T04:13:39.734Z,96832.27
2022-10-18T04:16:08.402Z,96826.22
2022-10-18T04:18:37.076Z,96829.63
2022-10-18T04:21:05.743Z,96832.03
2022-10-18T04:23:37.881Z,96833.83
2022-10-18T04:26:04.794Z,96831.20
2022-10-18T04:28:34.446Z,96831.98
2022-10-18T04:31:03.160Z,96828.86
2022-10-18T04:33:31.683Z,96828.65
2022-10-18T04:36:02.999Z,96826.84
2022-10-18T04:38:31.635Z,96829.27
2022-10-18T04:41:00.316Z,96826.93
2022-10-18T04:43:28.988Z,96829.31
2022-10-18T04:45:57.590Z,96816.09
2022-10-18T04:48:26.249Z,96821.41
2022-10-18T04:50:54.878Z,96830.38
2022-10-18T04:53:23.448Z,96827.70
2022-10-18T04:55:52.480Z,96826.34
2022-10-18T04:58:21.222Z,96815.80
2022-10-18T05:00:50.679Z,96819.22
2022-10-18T05:03:19.533Z,96813.16
2022-10-18T05:06:01.226Z,96808.92
2022-10-18T05:08:18.554Z,96808.88
2022-10-18T05:10:47.916Z,96813.80
2022-10-18T05:13:18.064Z,96807.22
2022-10-18T05:15:48.075Z,96809.47
2022-10-18T05:18:16.662Z,96812.70
2022-10-18T05:20:45.341Z,96815.88
2022-10-18T05:23:14.013Z,96813.30
2022-10-18T05:25:45.903Z,96812.74
2022-10-18T05:28:38.234Z,96817.69
2022-10-18T05:30:45.225Z,96817.38
2022-10-18T05:33:13.804Z,96817.56
2022-10-18T05:35:42.693Z,96815.85
2022-10-18T05:38:11.344Z,96817.78
2022-10-18T05:40:40.744Z,96817.41
2022-10-18T05:43:09.406Z,96825.34
2022-10-18T05:45:38.039Z,96825.09
2022-10-18T05:48:07.902Z,96824.27
2022-10-18T05:50:39.541Z,96824.88
2022-10-18T05:53:11.976Z,96821.50
2022-10-18T05:55:37.190Z,96823.95
2022-10-18T05:58:05.940Z,96828.33
2022-10-18T06:00:34.661Z,96827.08
2022-10-18T06:03:03.220Z,96818.70
2022-10-18T06:05:31.904Z,96825.64
2022-10-18T06:08:00.592Z,96828.42
2022-10-18T06:10:29.179Z,96830.92
2022-10-18T06:12:57.794Z,96828.25
2022-10-18T06:15:26.361Z,96829.13
2022-10-18T06:17:55.106Z,96826.58
2022-10-18T06:20:23.698Z,96831.58
2022-10-18T06:22:55.497Z,96829.13
2022-10-18T06:25:24.296Z,96829.29
2022-10-18T06:27:52.984Z,96832.52
2022-10-18T06:30:21.575Z,96833.44
2022-10-18T06:32:53.024Z,96827.59
2022-10-18T06:35:21.635Z,96825.69
2022-10-18T06:37:50.228Z,96828.83
2022-10-18T06:40:20.037Z,96763.17
2022-10-18T06:43:00.018Z,96823.91
2022-10-18T06:45:20.605Z,96803.28
2022-10-18T06:47:52.009Z,96819.28
2022-10-18T06:50:20.580Z,96817.98
2022-10-18T06:52:50.718Z,96818.19
2022-10-18T06:55:19.383Z,96821.38
2022-10-18T06:57:48.139Z,96822.50
2022-10-18T07:00:16.916Z,96822.14
2022-10-18T07:02:45.484Z,96807.95
2022-10-18T07:05:14.159Z,96823.63
2022-10-18T07:07:42.860Z,96820.94
2022-10-18T07:10:13.097Z,96820.27
2022-10-18T07:12:41.910Z,96823.81
2022-10-18T07:15:11.097Z,96827.89
2022-10-18T07:17:39.731Z,96827.26
2022-10-18T07:20:08.724Z,96830.00
2022-10-18T07:22:38.272Z,96828.30
2022-10-18T07:25:07.506Z,96822.92
2022-10-18T07:27:43.840Z,96820.84
2022-10-18T07:30:15.647Z,96825.47
2022-10-18T07:32:44.338Z,96815.02
2022-10-18T07:35:13.150Z,96818.31
2022-10-18T07:37:41.803Z,96811.65
2022-10-18T07:40:12.474Z,96808.61
2022-10-18T07:42:41.113Z,96807.74
2022-10-18T07:45:11.910Z,96796.17
2022-10-18T07:47:42.298Z,96802.84
2022-10-18T07:50:16.637Z,96804.77
2022-10-18T07:52:46.266Z,96798.72
2022-10-18T07:55:15.154Z,96794.69
2022-10-18T07:57:43.915Z,96790.97
2022-10-18T08:00:14.351Z,96788.95
2022-10-18T08:05:55.169Z,96783.48
2022-10-18T08:08:29.154Z,96786.70
2022-10-18T08:10:59.446Z,96784.42
2022-10-18T08:13:28.174Z,96775.23
2022-10-18T08:16:01.686Z,96780.80
2022-10-18T08:18:31.955Z,96770.05
2022-10-18T08:21:05.275Z,96766.19
2022-10-18T08:23:34.371Z,96768.20
2022-10-18T08:26:05.228Z,96759.80
2022-10-18T08:28:35.804Z,96761.00
2022-10-18T08:31:09.923Z,96754.73
2022-10-18T08:33:39.655Z,96741.84
2022-10-18T08:36:10.897Z,96737.14
2022-10-18T08:38:41.428Z,96740.07
2022-10-18T08:41:40.135Z,96734.27
2022-10-18T08:44:24.161Z,96727.80
2022-10-18T08:46:55.811Z,96719.28
2022-10-18T08:49:47.083Z,96726.84
2022-10-18T08:52:21.855Z,96711.05
2022-10-18T08:55:09.194Z,96700.35
2022-10-18T08:57:39.438Z,96699.65
2022-10-18T09:00:12.579Z,96691.95
2022-10-18T09:03:01.056Z,96687.40
2022-10-18T09:05:36.183Z,96692.16
2022-10-18T09:08:19.819Z,96687.47
2022-10-18T09:11:10.991Z,96680.11
2022-10-18T09:14:06.234Z,96692.46
2022-10-18T09:16:40.828Z,96686.82
2022-10-18T09:19:15.337Z,96686.13
2022-10-18T09:21:56.154Z,96686.00
2022-10-18T09:24:30.452Z,96677.16
2022-10-18T09:27:02.271Z,96681.33
2022-10-18T09:29:54.702Z,96684.36
2022-10-18T09:32:41.533Z,96675.02
2022-10-18T09:35:25.438Z,96669.48
2022-10-18T09:37:59.896Z,96666.72
2022-10-18T09:40:34.446Z,96661.72
2022-10-18T09:43:14.986Z,96653.95
2022-10-18T09:45:46.487Z,96656.31
2022-10-18T09:48:24.297Z,96653.06
2022-10-18T09:51:13.411Z,96655.23
2022-10-18T09:54:04.935Z,96654.37
2022-10-18T09:56:39.449Z,96644.25
2022-10-18T09:59:11.406Z,96644.12
2022-10-18T10:01:41.919Z,96635.25
2022-10-18T10:04:12.444Z,96631.53
2022-10-18T10:06:44.176Z,96619.14
2022-10-18T10:09:18.951Z,96611.38
2022-10-18T10:11:53.471Z,96606.64
2022-10-18T10:14:28.287Z,96601.25
2022-10-18T10:17:05.991Z,96593.09
2022-10-18T10:19:40.526Z,96582.06
2022-10-18T10:22:15.665Z,96568.83
2022-10-18T10:28:49.750Z,96558.82
2022-10-18T10:31:30.153Z,96554.90
2022-10-18T10:34:17.788Z,96552.99
2022-10-18T10:36:55.241Z,96545.97
2022-10-18T10:39:28.513Z,96544.33
2022-10-18T10:42:01.897Z,96536.59
2022-10-18T10:44:33.486Z,96533.87
2022-10-18T10:47:02.203Z,96519.13
2022-10-18T10:49:42.617Z,96517.81
2022-10-18T10:52:27.265Z,96513.73
2022-10-18T10:55:05.882Z,96509.15
2022-10-18T10:57:28.958Z,96509.21
2022-10-18T11:00:00.347Z,96506.21
2022-10-18T11:02:36.793Z,96499.15
2022-10-18T11:05:27.104Z,96491.83
2022-10-18T11:08:04.006Z,96492.78
2022-10-18T11:10:38.681Z,96487.58
2022-10-18T11:13:26.500Z,96482.18
2022-10-18T11:15:59.453Z,96483.33
2022-10-18T11:18:48.165Z,96477.97
2022-10-18T11:21:19.923Z,96472.37
2022-10-18T11:23:48.620Z,96460.44
2022-10-18T11:26:29.236Z,96452.92
2022-10-18T11:29:23.865Z,96450.84
2022-10-18T11:31:55.495Z,96447.18
2022-10-18T11:34:29.855Z,96440.63
2022-10-18T11:37:26.287Z,96428.30
2022-10-18T11:40:00.089Z,96430.03
2022-10-18T11:42:43.769Z,96426.93
2022-10-18T11:45:18.192Z,96420.17
2022-10-18T11:47:52.315Z,96409.80
2022-10-18T11:50:32.318Z,96404.77
2022-10-18T11:56:24.615Z,96398.20
2022-10-18T11:59:15.393Z,96398.20
2022-10-18T12:02:04.538Z,96401.50
2022-10-18T12:04:53.059Z,96392.23
2022-10-18T12:07:27.731Z,96386.80
2022-10-18T12:10:03.410Z,96381.22
2022-10-18T12:12:56.076Z,96367.29
2022-10-18T12:15:28.973Z,96363.08
2022-10-18T12:18:03.470Z,96367.89
2022-10-18T12:20:38.046Z,96358.81
2022-10-18T12:23:21.025Z,96354.95
2022-10-18T12:25:57.989Z,96333.77
2022-10-18T12:31:54.315Z,96338.64
2022-10-18T12:34:27.557Z,96338.64
2022-10-18T12:37:19.098Z,96336.73
2022-10-18T12:40:11.465Z,96340.02
2022-10-18T12:42:39.906Z,96331.89
2022-10-18T12:45:17.075Z,96330.53
2022-10-18T12:47:50.105Z,96324.58
2022-10-18T12:50:35.131Z,96316.29
2022-10-18T12:53:07.036Z,96315.34
2022-10-18T12:55:38.918Z,96315.73
2022-10-18T12:58:13.848Z,96313.41
2022-10-18T13:00:46.044Z,96310.52
2022-10-18T13:03:21.584Z,96306.09
2022-10-18T13:05:56.557Z,96310.52
2022-10-18T13:08:34.690Z,96307.05
2022-10-18T13:11:12.126Z,96305.11
2022-10-18T13:13:50.950Z,96302.41
2022-10-18T13:16:32.794Z,96299.16
2022-10-18T13:19:23.214Z,96297.01
2022-10-18T13:22:00.504Z,96291.39
2022-10-18T13:24:47.110Z,96288.54
2022-10-18T13:27:42.414Z,96284.52
2022-10-18T13:30:13.070Z,96282.19
2022-10-18T13:33:13.491Z,96275.03
2022-10-18T13:35:48.939Z,96278.53
2022-10-18T13:38:41.542Z,96276.20
2022-10-18T13:41:16.486Z,96273.50
2022-10-18T13:43:52.968Z,96267.17
2022-10-18T13:46:29.544Z,96269.69
2022-10-18T13:49:38.092Z,96260.05
2022-10-18T13:52:28.952Z,96260.48
2022-10-18T13:55:22.857Z,96256.67
2022-10-18T13:58:05.639Z,96250.48
2022-10-18T14:00:56.754Z,96245.11
2022-10-18T14:03:58.710Z,96251.85
2022-10-18T14:06:30.263Z,96249.36
2022-10-18T14:09:26.400Z,96245.31
2022-10-18T14:11:55.461Z,96243.56
2022-10-18T14:14:38.365Z,96243.59
2022-10-18T14:17:18.628Z,96244.00
2022-10-18T14:20:06.228Z,96242.09
2022-10-18T14:22:41.187Z,96239.80
2022-10-18T14:25:35.622Z,96242.84
2022-10-18T14:28:27.410Z,96235.55
2022-10-18T14:31:09.174Z,96233.84
2022-10-18T14:33:41.537Z,96238.66
2022-10-18T14:36:16.020Z,96237.52
2022-10-18T14:38:53.899Z,96234.25
2022-10-18T14:41:28.516Z,96228.66
2022-10-18T14:44:17.576Z,96223.45
2022-10-18T14:46:51.780Z,96224.02
2022-10-18T14:49:22.502Z,96221.16
2022-10-18T14:51:56.992Z,96216.34
2022-10-18T14:54:36.393Z,96221.52
2022-10-18T14:57:08.534Z,96215.75
2022-10-18T14:59:46.328Z,96215.30
2022-10-18T15:02:24.237Z,96210.11
2022-10-18T15:05:09.873Z,96210.50
2022-10-18T15:07:49.462Z,96211.27
2022-10-18T15:10:27.549Z,96204.09
2022-10-18T15:13:10.929Z,96205.36
2022-10-18T15:15:36.031Z,96207.20
2022-10-18T15:18:08.787Z,96202.48
2022-10-18T15:20:43.543Z,96205.57
2022-10-18T15:23:27.126Z,96207.73
2022-10-18T15:26:05.047Z,96208.55
2022-10-18T15:28:36.708Z,96205.30
2022-10-18T15:31:06.992Z,96198.16
2022-10-18T15:33:35.916Z,96199.47
2022-10-18T15:36:17.683Z,96190.02
2022-10-18T15:38:49.194Z,96188.95
2022-10-18T15:41:42.394Z,96196.47
2022-10-18T15:44:20.015Z,96190.98
2022-10-18T15:46:49.734Z,96194.01
2022-10-18T15:49:54.582Z,96197.45
2022-10-18T15:52:27.906Z,96192.67
2022-10-18T15:54:57.357Z,96198.80
2022-10-18T15:57:29.124Z,96197.56
2022-10-18T16:00:02.776Z,96191.47
2022-10-18T16:02:32.015Z,96194.98
2022-10-18T16:05:03.577Z,96200.80
2022-10-18T16:07:32.478Z,96201.51
2022-10-18T16:10:01.436Z,96205.59
2022-10-18T16:12:29.981Z,96207.41
2022-10-18T16:15:05.134Z,96212.50
2022-10-18T16:18:09.266Z,96214.20
2022-10-18T16:47:49.482Z,96227.77
2022-10-18T16:50:22.050Z,96230.84
2022-10-18T16:52:51.266Z,96227.18
2022-10-18T16:55:27.793Z,96232.98
2022-10-18T16:58:09.052Z,96233.19
2022-10-18T17:00:43.283Z,96231.94
2022-10-18T17:03:16.450Z,96230.95
2022-10-18T17:05:48.092Z,96231.16
2022-10-18T17:08:23.128Z,96233.75
2022-10-18T17:10:55.304Z,96232.28
2022-10-18T17:13:25.276Z,96232.63
2022-10-18T17:15:55.682Z,96231.52
2022-10-18T17:18:32.959Z,96224.62
2022-10-18T17:21:03.595Z,96222.13
2022-10-18T17:23:39.008Z,96222.05
2022-10-18T17:26:45.561Z,96223.03
2022-10-18T17:35:26.495Z,96216.92
2022-10-18T17:37:55.275Z,96219.01
2022-10-18T17:40:25.626Z,96214.20
2022-10-18T17:46:20.597Z,96214.80
2022-10-18T17:52:07.153Z,96217.69
2022-10-18T17:54:36.041Z,96213.84
2022-10-18T18:00:39.244Z,96222.28
2022-10-18T18:03:06.424Z,96212.97
2022-10-18T18:05:42.440Z,96218.00
2022-10-18T18:12:16.593Z,96221.45
2022-10-18T18:14:51.763Z,96219.48
2022-10-18T18:20:32.399Z,96221.03
2022-10-18T18:23:26.411Z,96221.71
2022-10-18T18:26:03.972Z,96221.25
2022-10-18T18:28:33.172Z,96214.94
2022-10-18T19:24:06.138Z,96202.86
2022-10-18T19:26:42.610Z,96205.13
2022-10-18T19:29:14.629Z,96205.27
2022-10-18T19:31:43.874Z,96202.39
2022-10-18T19:34:14.350Z,96204.17
2022-10-18T19:36:45.224Z,96208.23
2022-10-18T19:39:18.425Z,96205.52
2022-10-18T19:41:50.765Z,96207.98
2022-10-18T19:44:20.458Z,96200.28
2022-10-18T19:46:50.296Z,96197.59
2022-10-18T19:49:19.081Z,96201.31
2022-10-18T19:51:47.950Z,96196.52
2022-10-18T20:11:25.861Z,96186.73
2022-10-18T20:13:55.119Z,96186.46
2022-10-18T20:16:28.400Z,96185.18
2022-10-18T21:04:38.803Z,96165.45
2022-10-18T21:07:08.296Z,96165.78
2022-10-18T21:09:36.881Z,96161.91
2022-10-18T21:12:07.285Z,96159.54
2022-10-18T21:14:35.858Z,96161.13
2022-10-18T21:17:04.549Z,96159.41
2022-10-18T21:19:33.344Z,96154.57
2022-10-18T21:24:59.208Z,96155.89
2022-10-18T21:27:27.927Z,96149.69
2022-10-18T21:29:56.538Z,96141.91
2022-10-18T21:32:25.225Z,96137.19
2022-10-18T21:34:53.820Z,96136.58
2022-10-18T21:37:22.381Z,96138.28
2022-10-18T21:39:51.031Z,96132.86
2022-10-18T21:42:22.150Z,96128.33
2022-10-18T21:44:53.255Z,96117.97
2022-10-18T21:47:21.830Z,96121.02
2022-10-18T21:49:54.082Z,96112.23
2022-10-18T21:52:22.692Z,96112.69
2022-10-18T21:54:51.217Z,96105.09
2022-10-18T21:57:21.206Z,96103.77
2022-10-18T21:59:49.877Z,96099.72
2022-10-18T22:02:18.384Z,96103.70
2022-10-18T22:04:47.033Z,96094.45
2022-10-18T22:07:15.652Z,96096.55
2022-10-18T22:09:44.208Z,96060.90
2022-10-18T22:12:12.855Z,96089.69
2022-10-18T22:14:41.440Z,96086.48
2022-10-18T22:17:10.011Z,96090.00
2022-10-18T22:19:38.783Z,96086.19
2022-10-18T22:22:07.356Z,96085.58
2022-10-18T22:27:04.777Z,96085.34
2022-10-18T22:29:33.443Z,96082.30
2022-10-18T22:32:02.031Z,96080.06
2022-10-18T22:34:30.706Z,96074.75
2022-10-18T22:36:59.292Z,96068.37
2022-10-18T22:39:27.786Z,96073.14
2022-10-18T22:41:57.367Z,96071.33
2022-10-18T22:44:30.511Z,96068.44
2022-10-18T22:46:59.070Z,96062.56
2022-10-18T22:49:27.689Z,96061.28
2022-10-18T22:51:56.298Z,96060.37
2022-10-18T22:54:24.913Z,96059.11
2022-10-18T22:56:53.502Z,96056.33
2022-10-18T22:59:22.173Z,96058.02
2022-10-18T23:01:50.832Z,96048.54
2022-10-18T23:04:19.486Z,96052.19
2022-10-18T23:06:48.115Z,96051.19
2022-10-18T23:09:16.633Z,96049.24
2022-10-18T23:11:47.087Z,96045.66
2022-10-18T23:14:15.658Z,96047.98
2022-10-18T23:16:44.872Z,96046.14
2022-10-18T23:19:16.048Z,96038.13
2022-10-18T23:21:44.680Z,96040.83
2022-10-18T23:24:13.366Z,96037.05
2022-10-18T23:26:42.001Z,96042.92
2022-10-18T23:29:10.812Z,96038.19
2022-10-18T23:31:40.993Z,96037.78
2022-10-18T23:34:10.550Z,96036.09
2022-10-18T23:36:39.247Z,96033.12
2022-10-18T23:39:07.872Z,96031.95
2022-10-18T23:41:38.755Z,96025.80
2022-10-18T23:44:08.570Z,96017.19
2022-10-18T23:46:37.211Z,96010.13
2022-10-18T23:49:05.957Z,96012.36
2022-10-18T23:51:34.542Z,96009.48
2022-10-18T23:54:03.121Z,96009.89
2022-10-18T23:56:31.727Z,96009.89
2022-10-18T23:59:00.279Z,96010.03
